createdAt,value
2016-08-24T00:00:24.758Z,0
2016-08-24T00:00:59.055Z,0
2016-08-24T00:01:33.361Z,0
2016-08-24T00:02:07.663Z,0
2016-08-24T00:02:41.954Z,0
2016-08-24T00:03:16.261Z,0
2016-08-24T00:03:50.576Z,0
2016-08-24T00:04:24.888Z,0
2016-08-24T00:04:59.175Z,0
2016-08-24T00:05:33.491Z,0
2016-08-24T00:06:07.792Z,0
2016-08-24T00:06:42.091Z,0
2016-08-24T00:07:16.385Z,0
2016-08-24T00:07:50.688Z,0
2016-08-24T00:08:24.992Z,0
2016-08-24T00:08:59.310Z,0
2016-08-24T00:09:33.609Z,0
2016-08-24T00:10:07.895Z,0
2016-08-24T00:10:42.201Z,0
2016-08-24T00:11:16.531Z,0
2016-08-24T00:11:50.824Z,0
2016-08-24T00:12:25.104Z,0
2016-08-24T00:12:59.387Z,0
2016-08-24T00:13:33.672Z,0
2016-08-24T00:14:07.979Z,0
2016-08-24T00:14:42.269Z,0
2016-08-24T00:15:16.566Z,0
2016-08-24T00:15:50.858Z,0
2016-08-24T00:16:25.142Z,0
2016-08-24T00:16:59.457Z,0
2016-08-24T00:17:33.774Z,0
2016-08-24T00:18:08.076Z,0
2016-08-24T00:18:42.372Z,0
2016-08-24T00:19:16.651Z,0
2016-08-24T00:19:50.958Z,0
2016-08-24T00:20:25.255Z,0
2016-08-24T00:20:59.546Z,0
2016-08-24T00:21:33.826Z,0
2016-08-24T00:22:08.128Z,0
2016-08-24T00:22:42.440Z,0
2016-08-24T00:23:16.736Z,0
2016-08-24T00:23:51.030Z,0
2016-08-24T00:24:25.321Z,0
2016-08-24T00:24:59.620Z,0
2016-08-24T00:25:33.903Z,0
2016-08-24T00:26:08.192Z,0
2016-08-24T00:26:42.485Z,0
2016-08-24T00:27:16.769Z,0
2016-08-24T00:27:51.082Z,0
2016-08-24T00:28:25.383Z,0
2016-08-24T00:28:59.673Z,0
2016-08-24T00:29:33.993Z,0
2016-08-24T00:30:08.294Z,0
2016-08-24T00:30:42.585Z,0
2016-08-24T00:31:16.905Z,0
2016-08-24T00:31:51.184Z,0
2016-08-24T00:32:25.472Z,0
2016-08-24T00:32:59.768Z,0
2016-08-24T00:33:34.057Z,0
2016-08-24T00:34:08.353Z,0
2016-08-24T00:34:42.644Z,0
2016-08-24T00:35:16.943Z,0
2016-08-24T00:35:51.240Z,0
2016-08-24T00:36:26.444Z,0
2016-08-24T00:37:00.744Z,0
2016-08-24T00:37:35.043Z,0
2016-08-24T00:38:09.333Z,0
2016-08-24T00:38:43.617Z,0
2016-08-24T00:39:17.918Z,0
2016-08-24T00:39:52.213Z,0
2016-08-24T00:40:26.520Z,0
2016-08-24T00:41:00.835Z,0
2016-08-24T00:41:35.145Z,0
2016-08-24T00:42:09.441Z,0
2016-08-24T00:42:43.738Z,0
2016-08-24T00:43:18.057Z,0
2016-08-24T00:43:52.341Z,0
2016-08-24T00:44:26.620Z,0
2016-08-24T00:45:00.937Z,0
2016-08-24T00:45:35.234Z,0
2016-08-24T00:46:09.520Z,0
2016-08-24T00:46:43.808Z,0
2016-08-24T00:47:18.114Z,0
2016-08-24T00:47:52.420Z,0
2016-08-24T00:48:26.720Z,0
2016-08-24T00:49:01.017Z,0
2016-08-24T00:49:35.323Z,0
2016-08-24T00:50:09.612Z,0
2016-08-24T00:50:43.895Z,0
2016-08-24T00:51:18.192Z,0
2016-08-24T00:51:52.490Z,0
2016-08-24T00:52:26.798Z,0
2016-08-24T00:53:01.119Z,0
2016-08-24T00:53:35.414Z,0
2016-08-24T00:54:09.730Z,0
2016-08-24T00:54:44.021Z,0
2016-08-24T00:55:18.304Z,0
2016-08-24T00:55:52.607Z,0
2016-08-24T00:56:26.905Z,0
2016-08-24T00:57:01.192Z,0
2016-08-24T00:57:35.473Z,0
2016-08-24T00:58:09.775Z,0
2016-08-24T00:58:44.079Z,0
2016-08-24T00:59:18.376Z,0
2016-08-24T00:59:52.669Z,0
2016-08-24T01:00:26.979Z,0
2016-08-24T01:01:01.297Z,0
2016-08-24T01:01:35.591Z,0
2016-08-24T01:02:09.911Z,0
2016-08-24T01:02:44.214Z,0
2016-08-24T01:03:18.506Z,0
2016-08-24T01:03:52.807Z,0
2016-08-24T01:04:27.088Z,0
2016-08-24T01:05:01.372Z,0
2016-08-24T01:05:35.695Z,0
2016-08-24T01:06:09.991Z,0
2016-08-24T01:06:44.304Z,0
2016-08-24T01:07:18.603Z,0
2016-08-24T01:07:52.909Z,0
2016-08-24T01:08:27.208Z,0
2016-08-24T01:09:01.507Z,0
2016-08-24T01:09:35.802Z,0
2016-08-24T01:10:10.097Z,0
2016-08-24T01:10:44.406Z,0
2016-08-24T01:11:18.705Z,0
2016-08-24T01:11:53.006Z,0
2016-08-24T01:12:27.320Z,0
2016-08-24T01:13:01.631Z,0
2016-08-24T01:13:35.918Z,0
2016-08-24T01:14:10.215Z,0
2016-08-24T01:14:44.512Z,0
2016-08-24T01:15:18.816Z,0
2016-08-24T01:15:53.111Z,0
2016-08-24T01:16:27.407Z,0
2016-08-24T01:17:01.719Z,0
2016-08-24T01:17:36.017Z,0
2016-08-24T01:18:10.321Z,0
2016-08-24T01:18:44.605Z,0
2016-08-24T01:19:18.906Z,0
2016-08-24T01:19:53.233Z,0
2016-08-24T01:20:27.524Z,0
2016-08-24T01:21:01.815Z,0
2016-08-24T01:21:36.116Z,0
2016-08-24T01:22:10.395Z,0
2016-08-24T01:22:44.697Z,0
2016-08-24T01:23:19.010Z,0
2016-08-24T01:23:53.306Z,0
2016-08-24T01:24:27.608Z,0
2016-08-24T01:25:01.905Z,0
2016-08-24T01:25:36.201Z,0
2016-08-24T01:26:10.486Z,0
2016-08-24T01:26:44.768Z,0
2016-08-24T01:27:19.069Z,0
2016-08-24T01:27:53.369Z,0
2016-08-24T01:28:27.677Z,0
2016-08-24T01:29:01.970Z,0
2016-08-24T01:29:36.264Z,0
2016-08-24T01:30:10.573Z,0
2016-08-24T01:30:44.864Z,0
2016-08-24T01:31:19.136Z,0
2016-08-24T01:31:53.438Z,0
2016-08-24T01:32:27.732Z,0
2016-08-24T01:33:02.050Z,0
2016-08-24T01:33:36.367Z,0
2016-08-24T01:34:10.665Z,0
2016-08-24T01:34:44.963Z,0
2016-08-24T01:35:19.256Z,0
2016-08-24T01:35:53.573Z,0
2016-08-24T01:36:27.861Z,0
2016-08-24T01:37:02.162Z,0
2016-08-24T01:37:36.455Z,0
2016-08-24T01:38:10.757Z,0
2016-08-24T01:38:45.058Z,0
2016-08-24T01:39:19.359Z,0
2016-08-24T01:39:53.677Z,0
2016-08-24T01:40:27.989Z,0
2016-08-24T01:41:02.274Z,0
2016-08-24T01:41:36.559Z,0
2016-08-24T01:42:10.877Z,0
2016-08-24T01:42:45.180Z,0
2016-08-24T01:43:19.480Z,0
2016-08-24T01:43:53.758Z,0
2016-08-24T01:44:28.072Z,0
2016-08-24T01:45:02.386Z,0
2016-08-24T01:45:36.699Z,0
2016-08-24T01:46:10.993Z,0
2016-08-24T01:46:45.279Z,0
2016-08-24T01:47:19.562Z,0
2016-08-24T01:47:53.857Z,0
2016-08-24T01:48:28.148Z,0
2016-08-24T01:49:02.463Z,0
2016-08-24T01:49:36.763Z,0
2016-08-24T01:50:11.055Z,0
2016-08-24T01:50:45.330Z,0
2016-08-24T01:51:19.653Z,0
2016-08-24T01:51:53.964Z,0
2016-08-24T01:52:28.266Z,0
2016-08-24T01:53:02.610Z,0
2016-08-24T01:53:36.910Z,0
2016-08-24T01:54:11.216Z,0
2016-08-24T01:54:45.503Z,0
2016-08-24T01:55:19.795Z,0
2016-08-24T01:55:54.118Z,0
2016-08-24T01:56:28.414Z,0
2016-08-24T01:57:02.704Z,0
2016-08-24T01:57:36.998Z,0
2016-08-24T01:58:11.294Z,0
2016-08-24T01:58:45.613Z,0
2016-08-24T01:59:19.901Z,0
2016-08-24T01:59:54.200Z,0
2016-08-24T02:00:28.495Z,0
2016-08-24T02:01:02.789Z,0
2016-08-24T02:01:37.092Z,0
2016-08-24T02:02:11.400Z,0
2016-08-24T02:02:45.688Z,0
2016-08-24T02:03:19.989Z,0
2016-08-24T02:03:54.298Z,0
2016-08-24T02:04:28.605Z,0
2016-08-24T02:05:02.906Z,0
2016-08-24T02:05:37.177Z,0
2016-08-24T02:06:11.483Z,0
2016-08-24T02:06:45.792Z,0
2016-08-24T02:07:20.081Z,0
2016-08-24T02:07:54.384Z,0
2016-08-24T02:08:28.696Z,0
2016-08-24T02:09:03.009Z,0
2016-08-24T02:09:37.296Z,0
2016-08-24T02:10:11.600Z,0
2016-08-24T02:10:45.903Z,0
2016-08-24T02:11:20.199Z,0
2016-08-24T02:11:54.498Z,0
2016-08-24T02:12:28.794Z,0
2016-08-24T02:13:03.089Z,0
2016-08-24T02:13:37.392Z,0
2016-08-24T02:14:11.686Z,0
2016-08-24T02:14:45.980Z,0
2016-08-24T02:15:20.284Z,0
2016-08-24T02:15:54.573Z,0
2016-08-24T02:16:28.850Z,0
2016-08-24T02:17:03.148Z,0
2016-08-24T02:17:37.464Z,0
2016-08-24T02:18:11.764Z,0
2016-08-24T02:18:46.063Z,0
2016-08-24T02:19:20.368Z,0
2016-08-24T02:19:54.688Z,0
2016-08-24T02:20:28.982Z,0
2016-08-24T02:21:03.277Z,0
2016-08-24T02:21:37.580Z,0
2016-08-24T02:22:11.880Z,0
2016-08-24T02:22:46.181Z,0
2016-08-24T02:23:20.489Z,0
2016-08-24T02:23:54.798Z,0
2016-08-24T02:24:29.110Z,0
2016-08-24T02:25:03.424Z,0
2016-08-24T02:25:37.712Z,0
2016-08-24T02:26:12.001Z,0
2016-08-24T02:26:46.304Z,0
2016-08-24T02:27:20.616Z,0
2016-08-24T02:27:54.912Z,0
2016-08-24T02:28:29.210Z,0
2016-08-24T02:29:03.504Z,0
2016-08-24T02:29:37.806Z,0
2016-08-24T02:30:12.119Z,0
2016-08-24T02:30:46.404Z,0
2016-08-24T02:31:20.698Z,0
2016-08-24T02:31:54.986Z,0
2016-08-24T02:32:29.278Z,0
2016-08-24T02:33:03.579Z,0
2016-08-24T02:33:37.874Z,0
2016-08-24T02:34:12.182Z,0
2016-08-24T02:34:46.482Z,0
2016-08-24T02:35:20.787Z,0
2016-08-24T02:35:55.102Z,0
2016-08-24T02:36:29.403Z,0
2016-08-24T02:37:03.694Z,0
2016-08-24T02:37:38.001Z,0
2016-08-24T02:38:12.294Z,0
2016-08-24T02:38:46.590Z,0
2016-08-24T02:39:20.887Z,0
2016-08-24T02:39:55.178Z,0
2016-08-24T02:40:29.494Z,0
2016-08-24T02:41:03.795Z,0
2016-08-24T02:41:38.109Z,0
2016-08-24T02:42:12.399Z,0
2016-08-24T02:42:46.698Z,0
2016-08-24T02:43:20.990Z,0
2016-08-24T02:43:55.296Z,0
2016-08-24T02:44:29.592Z,0
2016-08-24T02:45:03.885Z,0
2016-08-24T02:45:38.176Z,0
2016-08-24T02:46:12.469Z,0
2016-08-24T02:46:46.769Z,0
2016-08-24T02:47:21.063Z,0
2016-08-24T02:47:55.378Z,0
2016-08-24T02:48:29.672Z,0
2016-08-24T02:49:03.959Z,0
2016-08-24T02:49:38.255Z,0
2016-08-24T02:50:12.545Z,0
2016-08-24T02:50:46.839Z,0
2016-08-24T02:51:21.137Z,0
2016-08-24T02:51:55.440Z,0
2016-08-24T02:52:29.754Z,0
2016-08-24T02:53:04.061Z,0
2016-08-24T02:53:38.345Z,0
2016-08-24T02:54:12.638Z,0
2016-08-24T02:54:46.930Z,0
2016-08-24T02:55:21.234Z,0
2016-08-24T02:55:55.528Z,0
2016-08-24T02:56:29.855Z,0
2016-08-24T02:57:04.143Z,0
2016-08-24T02:57:38.433Z,0
2016-08-24T02:58:12.748Z,0
2016-08-24T02:58:47.070Z,0
2016-08-24T02:59:21.383Z,0
2016-08-24T02:59:55.669Z,0
2016-08-24T03:00:29.960Z,0
2016-08-24T03:01:04.275Z,0
2016-08-24T03:01:38.578Z,0
2016-08-24T03:02:12.883Z,0
2016-08-24T03:02:47.164Z,0
2016-08-24T03:03:21.449Z,0
2016-08-24T03:03:55.744Z,0
2016-08-24T03:04:30.045Z,0
2016-08-24T03:05:04.352Z,0
2016-08-24T03:05:38.649Z,0
2016-08-24T03:06:12.958Z,0
2016-08-24T03:06:47.267Z,0
2016-08-24T03:07:21.556Z,0
2016-08-24T03:07:55.853Z,0
2016-08-24T03:08:30.160Z,0
2016-08-24T03:09:04.468Z,0
2016-08-24T03:09:38.776Z,0
2016-08-24T03:10:13.074Z,0
2016-08-24T03:10:47.380Z,0
2016-08-24T03:11:21.696Z,0
2016-08-24T03:11:55.980Z,0
2016-08-24T03:12:30.278Z,0
2016-08-24T03:13:04.573Z,0
2016-08-24T03:13:38.861Z,0
2016-08-24T03:14:13.146Z,0
2016-08-24T03:14:47.437Z,0
2016-08-24T03:15:21.725Z,0
2016-08-24T03:15:56.032Z,0
2016-08-24T03:16:30.317Z,0
2016-08-24T03:17:04.607Z,0
2016-08-24T03:17:38.931Z,0
2016-08-24T03:18:13.231Z,0
2016-08-24T03:18:47.526Z,0
2016-08-24T03:19:21.825Z,0
2016-08-24T03:19:56.121Z,0
2016-08-24T03:20:30.413Z,0
2016-08-24T03:21:04.694Z,0
2016-08-24T03:21:39.001Z,0
2016-08-24T03:22:13.289Z,0
2016-08-24T03:22:47.581Z,0
2016-08-24T03:23:21.865Z,0
2016-08-24T03:23:56.159Z,0
2016-08-24T03:24:30.455Z,0
2016-08-24T03:25:04.757Z,0
2016-08-24T03:25:39.045Z,0
2016-08-24T03:26:13.349Z,0
2016-08-24T03:26:47.630Z,0
2016-08-24T03:27:21.910Z,0
2016-08-24T03:27:56.209Z,0
2016-08-24T03:28:30.513Z,0
2016-08-24T03:29:04.814Z,0
2016-08-24T03:29:39.124Z,0
2016-08-24T03:30:13.415Z,0
2016-08-24T03:30:47.726Z,0
2016-08-24T03:31:22.014Z,0
2016-08-24T03:31:56.308Z,0
2016-08-24T03:32:30.619Z,0
2016-08-24T03:33:04.911Z,0
2016-08-24T03:33:39.217Z,0
2016-08-24T03:34:13.504Z,0
2016-08-24T03:34:47.797Z,0
2016-08-24T03:35:22.109Z,0
2016-08-24T03:35:56.393Z,0
2016-08-24T03:36:30.703Z,0
2016-08-24T03:37:05.012Z,0
2016-08-24T03:37:39.325Z,0
2016-08-24T03:38:13.632Z,0
2016-08-24T03:38:47.921Z,0
2016-08-24T03:39:22.222Z,0
2016-08-24T03:39:56.512Z,0
2016-08-24T03:40:30.801Z,0
2016-08-24T03:41:05.107Z,0
2016-08-24T03:41:39.394Z,0
2016-08-24T03:42:13.674Z,0
2016-08-24T03:42:47.980Z,0
2016-08-24T03:43:22.261Z,0
2016-08-24T03:43:56.562Z,0
2016-08-24T03:44:30.869Z,0
2016-08-24T03:45:05.171Z,0
2016-08-24T03:45:39.464Z,0
2016-08-24T03:46:13.773Z,0
2016-08-24T03:46:48.091Z,0
2016-08-24T03:47:22.407Z,0
2016-08-24T03:47:56.715Z,0
2016-08-24T03:48:31.008Z,0
2016-08-24T03:49:05.288Z,0
2016-08-24T03:49:39.577Z,0
2016-08-24T03:50:13.887Z,0
2016-08-24T03:50:48.189Z,0
2016-08-24T03:51:22.498Z,0
2016-08-24T03:51:56.780Z,0
2016-08-24T03:52:31.063Z,0
2016-08-24T03:53:05.360Z,0
2016-08-24T03:53:39.661Z,0
2016-08-24T03:54:13.977Z,0
2016-08-24T03:54:48.263Z,0
2016-08-24T03:55:22.555Z,0
2016-08-24T03:55:56.864Z,0
2016-08-24T03:56:31.168Z,0
2016-08-24T03:57:05.457Z,0
2016-08-24T03:57:39.749Z,0
2016-08-24T03:58:14.038Z,0
2016-08-24T03:58:48.334Z,0
2016-08-24T03:59:22.624Z,0
2016-08-24T03:59:56.906Z,0
2016-08-24T04:00:31.209Z,0
2016-08-24T04:01:05.519Z,0
2016-08-24T04:01:39.810Z,0
2016-08-24T04:02:14.110Z,0
2016-08-24T04:02:48.407Z,0
2016-08-24T04:03:22.705Z,0
2016-08-24T04:03:57.004Z,0
2016-08-24T04:04:31.299Z,0
2016-08-24T04:05:05.598Z,0
2016-08-24T04:05:39.908Z,0
2016-08-24T04:06:14.222Z,0
2016-08-24T04:06:48.520Z,0
2016-08-24T04:07:22.832Z,0
2016-08-24T04:07:57.135Z,0
2016-08-24T04:08:31.413Z,0
2016-08-24T04:09:05.705Z,0
2016-08-24T04:09:39.993Z,0
2016-08-24T04:10:14.282Z,0
2016-08-24T04:10:48.573Z,0
2016-08-24T04:11:22.854Z,0
2016-08-24T04:11:57.167Z,0
2016-08-24T04:12:31.449Z,0
2016-08-24T04:13:05.742Z,0
2016-08-24T04:13:40.057Z,0
2016-08-24T04:14:14.367Z,0
2016-08-24T04:14:48.670Z,0
2016-08-24T04:15:22.967Z,0
2016-08-24T04:15:57.274Z,0
2016-08-24T04:16:31.577Z,0
2016-08-24T04:17:05.878Z,0
2016-08-24T04:17:40.162Z,0
2016-08-24T10:20:00.146Z,115
2016-08-24T10:20:34.427Z,115
2016-08-24T10:21:12.001Z,120
2016-08-24T10:21:46.561Z,135
2016-08-24T10:22:21.432Z,115
2016-08-24T10:22:55.776Z,135
2016-08-24T10:23:30.114Z,120
2016-08-24T10:24:05.152Z,115
2016-08-24T10:24:40.194Z,120
2016-08-24T10:25:14.516Z,90
2016-08-24T10:25:49.864Z,85
2016-08-24T10:26:24.191Z,85
2016-08-24T10:26:58.491Z,85
2016-08-24T10:27:32.796Z,85
2016-08-24T10:28:08.051Z,85
2016-08-24T10:28:42.338Z,90
2016-08-24T10:29:16.621Z,90
2016-08-24T10:29:50.922Z,90
2016-08-24T10:30:25.213Z,90
2016-08-24T10:30:59.511Z,90
2016-08-24T10:31:33.879Z,90
2016-08-24T10:32:08.188Z,90
2016-08-24T10:32:42.480Z,90
2016-08-24T10:33:16.786Z,90
2016-08-24T10:33:51.157Z,90
2016-08-24T10:34:25.459Z,90
2016-08-24T10:34:59.756Z,90
2016-08-24T10:35:34.027Z,90
2016-08-24T10:36:08.326Z,95
2016-08-24T10:36:42.627Z,95
2016-08-24T10:37:16.922Z,95
2016-08-24T10:37:51.213Z,95
2016-08-24T10:38:25.486Z,95
2016-08-24T10:38:59.760Z,95
2016-08-24T10:39:34.085Z,95
2016-08-24T10:40:08.355Z,95
2016-08-24T10:40:43.536Z,95
2016-08-24T10:41:19.020Z,95
2016-08-24T10:41:53.349Z,95
2016-08-24T10:42:27.650Z,95
2016-08-24T10:43:01.945Z,100
2016-08-24T10:43:37.599Z,100
2016-08-24T10:44:11.896Z,100
2016-08-24T10:44:46.209Z,100
2016-08-24T10:45:20.491Z,100
2016-08-24T10:45:54.776Z,100
2016-08-24T10:46:30.012Z,100
2016-08-24T10:47:04.287Z,100
2016-08-24T10:47:38.783Z,100
2016-08-24T10:48:13.576Z,105
2016-08-24T10:48:48.206Z,105
2016-08-24T10:49:22.784Z,105
2016-08-24T10:49:57.896Z,105
2016-08-24T10:50:32.310Z,105
2016-08-24T10:51:07.517Z,105
2016-08-24T10:51:41.833Z,105
2016-08-24T10:52:17.776Z,105
2016-08-24T10:52:52.067Z,105
2016-08-24T10:53:27.590Z,110
2016-08-24T10:54:01.961Z,110
2016-08-24T10:54:36.264Z,110
2016-08-24T10:55:10.643Z,110
2016-08-24T10:55:45.050Z,110
2016-08-24T10:56:19.718Z,110
2016-08-24T10:56:54.359Z,110
2016-08-24T10:57:28.771Z,110
2016-08-24T10:58:07.545Z,115
2016-08-24T10:58:42.101Z,115
2016-08-24T10:59:17.752Z,115
2016-08-24T10:59:52.026Z,115
2016-08-24T11:00:29.858Z,115
2016-08-24T11:01:07.004Z,115
2016-08-24T11:01:45.521Z,120
2016-08-24T11:02:22.587Z,120
2016-08-24T11:02:58.523Z,120
2016-08-24T11:03:33.029Z,120
2016-08-24T11:04:07.785Z,120
2016-08-24T11:04:42.111Z,125
2016-08-24T11:05:17.030Z,125
2016-08-24T11:05:51.346Z,125
2016-08-24T11:06:25.638Z,125
2016-08-24T11:07:00.135Z,125
2016-08-24T11:07:34.505Z,125
2016-08-24T11:08:08.792Z,125
2016-08-24T11:08:43.099Z,130
2016-08-24T11:09:17.393Z,130
2016-08-24T11:09:51.684Z,130
2016-08-24T11:10:26.963Z,130
2016-08-24T11:11:01.246Z,130
2016-08-24T11:11:35.556Z,135
2016-08-24T11:12:09.831Z,135
2016-08-24T11:13:08.153Z,135
2016-08-24T11:13:42.436Z,135
2016-08-24T11:14:16.726Z,135
2016-08-24T11:14:51.015Z,135
2016-08-24T11:15:25.320Z,135
2016-08-24T11:15:59.591Z,140
2016-08-24T11:16:34.068Z,140
2016-08-24T11:17:09.319Z,140
2016-08-24T11:17:44.038Z,140
2016-08-24T11:18:18.494Z,145
2016-08-24T11:18:52.788Z,145
2016-08-24T11:19:27.085Z,145
2016-08-24T11:20:01.386Z,145
2016-08-24T11:20:35.677Z,145
2016-08-24T11:21:10.002Z,150
2016-08-24T11:21:44.337Z,150
2016-08-24T11:22:18.636Z,150
2016-08-24T11:22:52.943Z,150
2016-08-24T11:23:27.282Z,150
2016-08-24T11:24:01.624Z,155
2016-08-24T11:24:35.933Z,155
2016-08-24T11:25:10.214Z,155
2016-08-24T11:25:44.492Z,155
2016-08-24T11:26:18.776Z,160
2016-08-24T11:26:53.993Z,160
2016-08-24T11:27:28.280Z,160
2016-08-24T11:28:02.601Z,165
2016-08-24T11:28:36.895Z,165
2016-08-24T11:29:11.906Z,165
2016-08-24T11:29:46.207Z,165
2016-08-24T11:30:20.516Z,165
2016-08-24T11:30:54.780Z,170
2016-08-24T11:31:28.393Z,170
2016-08-24T11:32:02.691Z,170
2016-08-24T11:32:37.011Z,175
2016-08-24T11:33:11.301Z,175
2016-08-24T11:33:45.587Z,175
2016-08-24T11:34:19.871Z,180
2016-08-24T11:34:54.169Z,180
2016-08-24T11:35:28.492Z,180
2016-08-24T11:36:02.815Z,185
2016-08-24T11:36:37.099Z,185
2016-08-24T11:37:11.375Z,190
2016-08-24T11:37:45.665Z,190
2016-08-24T11:38:19.949Z,190
2016-08-24T11:38:54.264Z,195
2016-08-24T11:39:27.896Z,195
2016-08-24T11:40:02.214Z,195
2016-08-24T11:40:36.504Z,200
2016-08-24T11:41:10.814Z,200
2016-08-24T11:41:45.110Z,200
2016-08-24T11:42:19.418Z,205
2016-08-24T11:42:53.731Z,205
2016-08-24T11:43:28.035Z,210
2016-08-24T11:44:02.321Z,210
2016-08-24T11:44:36.636Z,215
2016-08-24T11:45:11.041Z,215
2016-08-24T11:45:45.327Z,215
2016-08-24T11:46:19.617Z,215
2016-08-24T11:46:53.922Z,215
2016-08-24T11:47:28.501Z,220
2016-08-24T11:48:02.129Z,220
2016-08-24T11:48:36.421Z,225
2016-08-24T11:49:10.721Z,225
2016-08-24T11:49:45.003Z,230
2016-08-24T11:50:19.281Z,235
2016-08-24T11:50:53.571Z,235
2016-08-24T11:51:27.862Z,240
2016-08-24T11:52:02.195Z,240
2016-08-24T11:52:36.519Z,245
2016-08-24T11:53:10.808Z,245
2016-08-24T11:53:45.110Z,250
2016-08-24T11:54:19.399Z,250
2016-08-24T11:54:53.681Z,255
2016-08-24T11:55:27.969Z,260
2016-08-24T11:56:02.261Z,265
2016-08-24T11:56:36.569Z,265
2016-08-24T11:57:10.859Z,270
2016-08-24T11:57:45.146Z,275
2016-08-24T11:58:19.427Z,280
2016-08-24T11:58:53.742Z,280
2016-08-24T11:59:28.038Z,285
2016-08-24T12:00:02.370Z,290
2016-08-24T12:00:36.752Z,295
2016-08-24T12:01:11.268Z,300
2016-08-24T12:01:45.570Z,305
2016-08-24T12:02:19.863Z,310
2016-08-24T12:02:54.668Z,315
2016-08-24T12:03:29.541Z,320
2016-08-24T12:04:03.849Z,325
2016-08-24T12:04:38.152Z,335
2016-08-24T12:05:12.457Z,340
2016-08-24T12:05:46.757Z,350
2016-08-24T12:06:21.047Z,355
2016-08-24T12:06:55.348Z,360
2016-08-24T12:07:29.644Z,370
2016-08-24T12:08:03.938Z,365
2016-08-24T12:08:38.217Z,370
2016-08-24T12:09:12.522Z,375
2016-08-24T12:09:46.818Z,380
2016-08-24T12:10:21.153Z,385
2016-08-24T12:10:55.453Z,390
2016-08-24T12:11:29.754Z,395
2016-08-24T12:12:04.094Z,400
2016-08-24T12:12:39.458Z,405
2016-08-24T12:13:13.799Z,410
2016-08-24T12:13:48.114Z,415
2016-08-24T12:14:22.425Z,420
2016-08-24T12:14:56.722Z,425
2016-08-24T12:15:31.017Z,435
2016-08-24T12:16:05.315Z,440
2016-08-24T12:16:39.605Z,440
2016-08-24T12:17:13.921Z,450
2016-08-24T12:17:48.252Z,455
2016-08-24T12:18:22.830Z,460
2016-08-24T12:19:01.584Z,475
2016-08-24T12:19:38.308Z,480
2016-08-24T12:20:23.114Z,490
2016-08-24T12:21:01.590Z,495
2016-08-24T12:21:40.256Z,505
2016-08-24T12:22:23.613Z,515
2016-08-24T12:23:01.593Z,520
2016-08-24T12:23:38.186Z,530
2016-08-24T12:24:16.738Z,535
2016-08-24T12:24:53.084Z,545
2016-08-24T12:25:32.643Z,555
2016-08-24T12:26:09.252Z,565
2016-08-24T12:26:46.113Z,570
2016-08-24T12:27:29.744Z,575
2016-08-24T12:28:09.215Z,585
2016-08-24T12:28:45.298Z,595
2016-08-24T12:29:22.707Z,600
2016-08-24T12:29:57.835Z,610
2016-08-24T12:30:33.334Z,615
2016-08-24T12:31:09.534Z,620
2016-08-24T12:31:45.157Z,625
2016-08-24T12:32:19.584Z,635
2016-08-24T12:32:53.908Z,635
2016-08-24T12:33:28.295Z,650
2016-08-24T12:34:02.599Z,650
2016-08-24T12:34:36.912Z,655
2016-08-24T12:35:12.531Z,660
2016-08-24T12:35:48.342Z,670
2016-08-24T12:36:22.827Z,675
2016-08-24T12:37:03.005Z,685
2016-08-24T12:37:40.139Z,690
2016-08-24T12:38:35.079Z,700
2016-08-24T12:39:12.625Z,705
2016-08-24T12:39:54.113Z,715
2016-08-24T12:40:41.119Z,720
2016-08-24T12:41:19.623Z,735
2016-08-24T12:41:54.276Z,740
2016-08-24T12:42:30.722Z,750
2016-08-24T12:43:07.619Z,750
2016-08-24T12:43:44.023Z,755
2016-08-24T12:44:23.126Z,760
2016-08-24T12:45:02.138Z,765
2016-08-24T12:45:37.820Z,765
2016-08-24T12:46:13.619Z,770
2016-08-24T12:46:50.038Z,780
2016-08-24T12:47:27.107Z,785
2016-08-24T12:48:02.027Z,795
2016-08-24T12:48:36.928Z,800
2016-08-24T12:49:15.116Z,800
2016-08-24T12:49:54.541Z,810
2016-08-24T12:50:32.146Z,810
2016-08-24T12:51:10.111Z,815
2016-08-24T12:51:45.590Z,820
2016-08-24T12:52:22.640Z,820
2016-08-24T12:52:57.989Z,820
2016-08-24T12:53:33.038Z,825
2016-08-24T12:54:10.121Z,825
2016-08-24T12:54:48.083Z,830
2016-08-24T12:55:22.490Z,835
2016-08-24T12:55:57.248Z,835
2016-08-24T12:56:37.851Z,835
2016-08-24T12:57:13.200Z,835
2016-08-24T12:57:47.513Z,835
2016-08-24T12:58:22.964Z,840
2016-08-24T12:59:06.616Z,845
2016-08-24T12:59:44.015Z,845
2016-08-24T13:00:26.142Z,855
2016-08-24T13:01:01.809Z,850
2016-08-24T13:01:38.645Z,850
2016-08-24T13:02:13.997Z,855
2016-08-24T13:02:50.400Z,860
2016-08-24T13:03:25.116Z,860
2016-08-24T13:04:03.997Z,855
2016-08-24T13:04:39.086Z,855
2016-08-24T13:05:17.928Z,855
2016-08-24T13:05:58.144Z,855
2016-08-24T13:06:36.498Z,860
2016-08-24T13:07:15.641Z,860
2016-08-24T13:07:52.632Z,860
2016-08-24T13:08:30.581Z,860
2016-08-24T13:09:10.129Z,860
2016-08-24T13:09:45.733Z,860
2016-08-24T13:10:21.828Z,860
2016-08-24T13:10:59.118Z,860
2016-08-24T13:11:38.658Z,860
2016-08-24T13:12:15.090Z,860
2016-08-24T13:12:54.630Z,860
2016-08-24T13:13:30.505Z,855
2016-08-24T13:14:06.151Z,855
2016-08-24T13:14:43.656Z,850
2016-08-24T13:15:19.674Z,850
2016-08-24T13:15:54.312Z,845
2016-08-24T13:16:30.144Z,845
2016-08-24T13:17:04.998Z,840
2016-08-24T13:17:39.447Z,835
2016-08-24T13:18:17.505Z,835
2016-08-24T13:18:51.821Z,835
2016-08-24T13:19:28.157Z,835
2016-08-24T13:20:02.544Z,835
2016-08-24T13:20:40.140Z,830
2016-08-24T13:21:16.329Z,830
2016-08-24T13:22:01.673Z,825
2016-08-24T13:22:37.865Z,820
2016-08-24T13:23:19.159Z,820
2016-08-24T13:23:55.653Z,815
2016-08-24T13:24:30.226Z,810
2016-08-24T13:25:05.500Z,815
2016-08-24T13:25:39.193Z,805
2016-08-24T13:26:13.498Z,800
2016-08-24T13:26:48.056Z,800
2016-08-24T13:27:22.327Z,800
2016-08-24T13:27:56.625Z,795
2016-08-24T13:28:32.523Z,795
2016-08-24T13:29:10.015Z,800
2016-08-24T13:29:44.364Z,790
2016-08-24T13:30:19.812Z,790
2016-08-24T13:30:56.158Z,790
2016-08-24T13:31:31.981Z,790
2016-08-24T13:32:08.479Z,785
2016-08-24T13:32:46.654Z,780
2016-08-24T13:33:22.695Z,785
2016-08-24T13:33:57.063Z,785
2016-08-24T13:34:32.666Z,790
2016-08-24T13:35:08.653Z,785
2016-08-24T13:35:44.027Z,785
2016-08-24T13:36:24.208Z,790
2016-08-24T13:37:01.202Z,795
2016-08-24T13:37:36.202Z,850
2016-08-24T13:38:11.655Z,985
2016-08-24T13:38:49.431Z,1075
2016-08-24T13:39:24.742Z,1005
2016-08-24T13:39:59.020Z,880
2016-08-24T13:40:34.165Z,805
2016-08-24T13:41:08.526Z,800
2016-08-24T13:41:42.843Z,920
2016-08-24T13:42:17.158Z,1280
2016-08-24T13:42:52.664Z,1800
2016-08-24T13:43:26.970Z,2175
2016-08-24T13:44:01.311Z,2300
2016-08-24T13:44:35.677Z,2355
2016-08-24T13:45:10.838Z,2375
2016-08-24T13:45:45.142Z,2195
2016-08-24T13:46:19.433Z,1735
2016-08-24T13:46:53.716Z,1215
2016-08-24T13:47:28.033Z,935
2016-08-24T13:48:02.354Z,890
2016-08-24T13:48:36.658Z,1155
2016-08-24T13:49:10.956Z,1590
2016-08-24T13:49:45.277Z,2030
2016-08-24T13:50:19.574Z,2245
2016-08-24T13:50:53.909Z,2265
2016-08-24T13:51:28.211Z,2260
2016-08-24T13:52:04.021Z,2305
2016-08-24T13:52:38.321Z,2280
2016-08-24T13:53:12.637Z,2290
2016-08-24T13:53:46.973Z,2255
2016-08-24T13:54:21.296Z,2210
2016-08-24T13:54:55.593Z,2185
2016-08-24T13:55:29.881Z,2115
2016-08-24T13:56:04.186Z,2125
2016-08-24T13:56:38.500Z,2135
2016-08-24T13:57:12.795Z,2110
2016-08-24T13:57:47.100Z,2080
2016-08-24T13:58:21.405Z,2120
2016-08-24T13:58:55.709Z,2155
2016-08-24T13:59:30.008Z,2160
2016-08-24T14:00:04.313Z,2085
2016-08-24T14:00:38.630Z,2025
2016-08-24T14:01:12.937Z,1995
2016-08-24T14:01:47.234Z,1990
2016-08-24T14:02:21.533Z,2030
2016-08-24T14:02:55.821Z,2120
2016-08-24T14:03:30.124Z,2110
2016-08-24T14:04:04.439Z,2125
2016-08-24T14:04:38.739Z,2085
2016-08-24T14:05:13.030Z,2090
2016-08-24T14:05:47.329Z,2110
2016-08-24T14:06:21.628Z,2110
2016-08-24T14:06:55.922Z,2115
2016-08-24T14:07:30.223Z,2090
2016-08-24T14:08:04.529Z,2050
2016-08-24T14:08:38.819Z,2065
2016-08-24T14:09:13.120Z,2080
2016-08-24T14:09:47.415Z,2095
2016-08-24T14:10:21.714Z,2080
2016-08-24T14:10:56.010Z,2105
2016-08-24T14:11:30.309Z,2125
2016-08-24T14:12:04.618Z,2085
2016-08-24T14:12:38.903Z,2005
2016-08-24T14:13:13.195Z,2020
2016-08-24T14:13:47.513Z,1985
2016-08-24T14:14:21.811Z,2025
2016-08-24T14:14:56.105Z,2045
2016-08-24T14:15:30.400Z,2045
2016-08-24T14:16:04.715Z,2100
2016-08-24T14:16:39.023Z,2070
2016-08-24T14:17:13.312Z,1990
2016-08-24T14:17:47.627Z,1965
2016-08-24T14:18:21.932Z,1995